Time;durP1;ratioP1;P1;durP2;ratioP2;P2;SDS_P1;SDS_P2;PMS_P1;PMS_P2;Temp;Humidity;BMP_temperature;BMP_pressure;BME280_temperature;BME280_humidity;BME280_pressure;Samples;Min_cycle;Max_cycle;Signal;HPM_P1;HPM_P2
2022/04/23 00:01:06;;;;;;;5.00;4.50;;;;;;;;;;5006685;28;20209;-59
2022/04/23 00:03:35;;;;;;;4.00;3.30;;;;;;;;;;5006370;28;20232;-59
2022/04/23 00:06:02;;;;;;;5.27;4.77;;;;;;;;;;5006519;28;20324;-59
2022/04/23 00:08:29;;;;;;;5.00;4.57;;;;;;;;;;5006333;28;20232;-59
2022/04/23 00:10:56;;;;;;;4.03;3.67;;;;;;;;;;5006026;28;20715;-59
2022/04/23 00:13:23;;;;;;;4.80;4.30;;;;;;;;;;5006254;28;20212;-59
2022/04/23 00:15:50;;;;;;;3.43;3.13;;;;;;;;;;5006194;28;20275;-59
2022/04/23 00:18:18;;;;;;;4.67;4.20;;;;;;;;;;5006766;28;20919;-59
2022/04/23 00:20:47;;;;;;;4.07;3.73;;;;;;;;;;5006725;28;20243;-59
2022/04/23 00:23:14;;;;;;;5.30;4.57;;;;;;;;;;5006697;28;20288;-59
2022/04/23 00:25:41;;;;;;;6.13;4.93;;;;;;;;;;5006286;28;20216;-59
2022/04/23 00:28:10;;;;;;;6.80;5.10;;;;;;;;;;5006294;28;20264;-59
2022/04/23 00:30:38;;;;;;;4.80;4.40;;;;;;;;;;5006563;28;20303;-59
2022/04/23 00:33:05;;;;;;;5.83;4.50;;;;;;;;;;5004812;28;20209;-59
2022/04/23 00:35:32;;;;;;;7.37;5.17;;;;;;;;;;5006267;28;20205;-59
2022/04/23 00:38:01;;;;;;;5.23;4.70;;;;;;;;;;5006747;28;20625;-59
2022/04/23 00:40:28;;;;;;;5.73;5.23;;;;;;;;;;5006488;28;20292;-59
2022/04/23 00:42:57;;;;;;;3.80;3.57;;;;;;;;;;5005977;28;20205;-59
2022/04/23 00:45:24;;;;;;;7.23;5.30;;;;;;;;;;5004102;28;20255;-59
2022/04/23 00:47:51;;;;;;;5.63;5.03;;;;;;;;;;5006166;28;20647;-58
2022/04/23 00:50:21;;;;;;;6.10;5.27;;;;;;;;;;5006097;28;20213;-62
2022/04/23 00:52:48;;;;;;;5.83;5.23;;;;;;;;;;5002876;28;20651;-59
2022/04/23 00:55:17;;;;;;;6.87;5.63;;;;;;;;;;5001690;28;20671;-59
2022/04/23 00:57:44;;;;;;;5.23;4.73;;;;;;;;;;5006076;28;20213;-59
2022/04/23 01:00:12;;;;;;;7.03;5.37;;;;;;;;;;5005043;28;20212;-59
2022/04/23 01:02:40;;;;;;;6.17;5.57;;;;;;;;;;5005579;28;20204;-59
2022/04/23 01:05:08;;;;;;;7.77;5.70;;;;;;;;;;5004894;28;20332;-60
2022/04/23 01:07:38;;;;;;;8.47;6.10;;;;;;;;;;5005520;28;20232;-59
2022/04/23 01:10:05;;;;;;;7.37;5.53;;;;;;;;;;5005259;28;20209;-59
2022/04/23 01:12:35;;;;;;;6.77;5.70;;;;;;;;;;5005828;28;20205;-59
2022/04/23 01:15:03;;;;;;;7.77;5.77;;;;;;;;;;5004452;28;20201;-59
2022/04/23 01:17:30;;;;;;;6.70;5.23;;;;;;;;;;5005038;28;20205;-59
2022/04/23 01:19:57;;;;;;;7.63;5.70;;;;;;;;;;5005315;28;20595;-59
2022/04/23 01:22:50;;;;;;;7.57;5.30;;;;;;;;;;5005979;28;20709;-59
2022/04/23 01:25:19;;;;;;;6.57;5.50;;;;;;;;;;4992607;28;20237;-59
2022/04/23 01:27:46;;;;;;;7.23;6.27;;;;;;;;;;5005763;28;20209;-59
2022/04/23 01:30:14;;;;;;;8.97;6.53;;;;;;;;;;5005255;28;20208;-59
2022/04/23 01:32:41;;;;;;;7.03;5.60;;;;;;;;;;5005400;28;20674;-59
2022/04/23 01:35:08;;;;;;;6.83;6.13;;;;;;;;;;5005376;28;20213;-59
2022/04/23 01:37:35;;;;;;;9.80;6.90;;;;;;;;;;5005639;28;20213;-59
2022/04/23 01:40:02;;;;;;;9.70;6.70;;;;;;;;;;5006243;28;20236;-59
2022/04/23 01:42:31;;;;;;;10.53;6.20;;;;;;;;;;5005398;28;20228;-59
2022/04/23 01:44:58;;;;;;;11.53;6.00;;;;;;;;;;5004649;28;20255;-59
2022/04/23 01:47:25;;;;;;;7.50;6.10;;;;;;;;;;5005853;28;20667;-59
2022/04/23 01:49:52;;;;;;;7.53;6.00;;;;;;;;;;5005615;28;20213;-59
2022/04/23 01:52:19;;;;;;;9.60;6.57;;;;;;;;;;5005737;28;20590;-59
2022/04/23 01:54:46;;;;;;;7.57;5.90;;;;;;;;;;5004918;28;20197;-59
2022/04/23 01:57:13;;;;;;;8.70;5.97;;;;;;;;;;5006355;28;20209;-60
2022/04/23 01:59:41;;;;;;;8.93;6.33;;;;;;;;;;5009057;28;20678;-59
2022/04/23 02:02:08;;;;;;;7.27;6.40;;;;;;;;;;5009679;28;20221;-60
2022/04/23 02:04:35;;;;;;;7.97;6.43;;;;;;;;;;5004365;28;20225;-59
2022/04/23 02:07:02;;;;;;;9.77;6.20;;;;;;;;;;5014752;28;20196;-58
2022/04/23 02:09:29;;;;;;;7.70;6.07;;;;;;;;;;5015823;28;20228;-59
2022/04/23 02:11:56;;;;;;;9.17;6.33;;;;;;;;;;5017659;28;20219;-59
2022/04/23 02:14:26;;;;;;;8.80;6.53;;;;;;;;;;5010292;28;20944;-59
2022/04/23 02:16:54;;;;;;;8.07;6.40;;;;;;;;;;5013529;28;20219;-59
2022/04/23 02:19:22;;;;;;;11.50;7.27;;;;;;;;;;5018538;28;20200;-59
2022/04/23 02:21:49;;;;;;;10.97;6.77;;;;;;;;;;5018305;28;20308;-59
2022/04/23 02:24:16;;;;;;;9.23;6.77;;;;;;;;;;5014726;28;20225;-59
2022/04/23 02:26:43;;;;;;;7.30;6.53;;;;;;;;;;5019610;28;20296;-59
2022/04/23 02:29:11;;;;;;;8.67;6.73;;;;;;;;;;5018820;28;20219;-59
2022/04/23 02:31:38;;;;;;;8.97;7.30;;;;;;;;;;5018285;28;20213;-59
2022/04/23 02:34:06;;;;;;;8.80;6.20;;;;;;;;;;5019206;28;20282;-59
2022/04/23 02:36:35;;;;;;;8.27;6.73;;;;;;;;;;5019952;28;20303;-59
2022/04/23 02:39:03;;;;;;;10.60;6.60;;;;;;;;;;5018310;28;20202;-59
2022/04/23 02:41:30;;;;;;;7.43;5.73;;;;;;;;;;5016809;28;20204;-59
2022/04/23 02:43:59;;;;;;;9.90;7.10;;;;;;;;;;5017723;28;20193;-59
2022/04/23 02:46:26;;;;;;;9.97;7.00;;;;;;;;;;5014933;28;20219;-59
2022/04/23 02:48:55;;;;;;;7.50;6.03;;;;;;;;;;5019057;28;20201;-60
2022/04/23 02:51:24;;;;;;;9.07;6.70;;;;;;;;;;5015830;28;20212;-59
2022/04/23 02:53:51;;;;;;;10.03;6.77;;;;;;;;;;5017546;28;20212;-59
2022/04/23 02:56:19;;;;;;;10.43;5.87;;;;;;;;;;5015995;28;20271;-59
2022/04/23 02:58:46;;;;;;;7.07;6.33;;;;;;;;;;5017263;28;20205;-59
2022/04/23 03:01:13;;;;;;;8.10;6.33;;;;;;;;;;5019957;28;20304;-60
2022/04/23 03:03:40;;;;;;;8.33;6.27;;;;;;;;;;5013619;28;20209;-61
2022/04/23 03:06:08;;;;;;;10.27;6.87;;;;;;;;;;5019316;28;20271;-61
2022/04/23 03:08:39;;;;;;;7.67;6.67;;;;;;;;;;5009214;28;20244;-61
2022/04/23 03:11:07;;;;;;;9.13;6.50;;;;;;;;;;5009702;28;20702;-61
2022/04/23 03:13:35;;;;;;;11.17;7.07;;;;;;;;;;4991432;28;20329;-60
2022/04/23 03:16:02;;;;;;;14.13;7.00;;;;;;;;;;4991979;28;20217;-59
2022/04/23 03:18:30;;;;;;;7.57;6.50;;;;;;;;;;5009514;28;20781;-59
2022/04/23 03:20:58;;;;;;;10.20;7.30;;;;;;;;;;5008977;28;20575;-59
2022/04/23 03:23:25;;;;;;;10.07;6.93;;;;;;;;;;5009152;28;20213;-58
2022/04/23 03:25:53;;;;;;;12.67;6.70;;;;;;;;;;5009122;28;20353;-58
2022/04/23 03:28:21;;;;;;;11.17;7.47;;;;;;;;;;5009273;28;20300;-61
2022/04/23 03:30:48;;;;;;;10.03;6.60;;;;;;;;;;5009073;28;20303;-61
2022/04/23 03:33:16;;;;;;;9.73;7.20;;;;;;;;;;5009348;28;20264;-60
2022/04/23 03:35:44;;;;;;;9.70;6.90;;;;;;;;;;5009111;28;20232;-59
2022/04/23 03:38:11;;;;;;;11.13;6.77;;;;;;;;;;5008864;28;20790;-58
2022/04/23 03:40:38;;;;;;;11.53;8.03;;;;;;;;;;5008334;28;20205;-61
2022/04/23 03:43:06;;;;;;;9.80;7.53;;;;;;;;;;5008587;28;20217;-59
2022/04/23 03:45:37;;;;;;;11.10;6.77;;;;;;;;;;5007840;28;20259;-58
2022/04/23 03:48:04;;;;;;;8.07;6.50;;;;;;;;;;5008196;28;20216;-59
2022/04/23 03:50:32;;;;;;;12.83;7.67;;;;;;;;;;5008565;28;20216;-58
2022/04/23 03:52:59;;;;;;;9.50;6.67;;;;;;;;;;5007878;28;20763;-59
2022/04/23 03:55:26;;;;;;;10.07;7.43;;;;;;;;;;5008222;28;20213;-59
2022/04/23 03:57:54;;;;;;;13.63;8.40;;;;;;;;;;5007696;28;20528;-59
2022/04/23 04:00:23;;;;;;;10.47;7.57;;;;;;;;;;5021316;28;20204;-60
2022/04/23 04:02:50;;;;;;;9.33;6.97;;;;;;;;;;5014895;28;20219;-59
2022/04/23 04:05:18;;;;;;;12.97;8.03;;;;;;;;;;5008146;28;20244;-59
2022/04/23 04:07:46;;;;;;;11.77;7.90;;;;;;;;;;5007338;28;20657;-59
2022/04/23 04:10:15;;;;;;;11.50;7.97;;;;;;;;;;5008208;28;20232;-59
2022/04/23 04:12:42;;;;;;;9.37;6.30;;;;;;;;;;5007656;28;20351;-59
2022/04/23 04:15:10;;;;;;;12.27;7.13;;;;;;;;;;5008289;28;20209;-59
2022/04/23 04:17:39;;;;;;;6.37;4.23;;;;;;;;;;5017037;28;20201;-59
2022/04/23 04:20:10;;;;;;;13.37;7.50;;;;;;;;;;5016719;28;20717;-59
2022/04/23 04:22:38;;;;;;;9.63;6.43;;;;;;;;;;5017304;28;20262;-59
2022/04/23 04:25:05;;;;;;;9.63;6.67;;;;;;;;;;5001496;28;20316;-59
2022/04/23 04:27:33;;;;;;;6.97;5.87;;;;;;;;;;5000237;28;20333;-59
2022/04/23 04:30:00;;;;;;;8.00;5.63;;;;;;;;;;5002550;28;20212;-59
2022/04/23 04:32:27;;;;;;;7.17;6.03;;;;;;;;;;5015470;28;20201;-59
2022/04/23 04:34:55;;;;;;;6.17;4.77;;;;;;;;;;5017247;28;20650;-59
2022/04/23 04:37:22;;;;;;;6.57;5.77;;;;;;;;;;5014005;28;20216;-59
2022/04/23 04:39:49;;;;;;;4.03;3.53;;;;;;;;;;5018522;28;20310;-59
2022/04/23 04:42:17;;;;;;;8.60;6.23;;;;;;;;;;5016100;28;20212;-59
2022/04/23 04:44:44;;;;;;;7.10;6.23;;;;;;;;;;5016727;28;20227;-59
2022/04/23 04:47:11;;;;;;;10.37;7.30;;;;;;;;;;5014169;28;20213;-59
2022/04/23 04:49:38;;;;;;;7.87;6.63;;;;;;;;;;5015223;28;20879;-59
2022/04/23 04:52:07;;;;;;;9.03;6.20;;;;;;;;;;5015574;28;20205;-59
2022/04/23 04:54:34;;;;;;;9.37;6.57;;;;;;;;;;5016365;28;20300;-59
2022/04/23 04:57:02;;;;;;;8.17;6.60;;;;;;;;;;5015312;28;20254;-59
2022/04/23 04:59:31;;;;;;;8.30;6.37;;;;;;;;;;5017772;28;20472;-59
2022/04/23 05:01:58;;;;;;;9.10;6.70;;;;;;;;;;5016291;28;20667;-59
2022/04/23 05:04:25;;;;;;;7.03;5.83;;;;;;;;;;5016370;28;20216;-59
2022/04/23 05:06:52;;;;;;;7.50;5.60;;;;;;;;;;5011233;28;20216;-58
2022/04/23 05:09:21;;;;;;;7.60;5.93;;;;;;;;;;5016493;28;20254;-59
2022/04/23 05:11:48;;;;;;;8.07;6.00;;;;;;;;;;5015740;28;20209;-59
2022/04/23 05:14:16;;;;;;;7.90;5.67;;;;;;;;;;5014961;28;20259;-59
2022/04/23 05:16:43;;;;;;;7.87;5.20;;;;;;;;;;5010346;28;20205;-59
2022/04/23 05:19:10;;;;;;;8.50;6.43;;;;;;;;;;5015478;28;20213;-60
2022/04/23 05:21:37;;;;;;;7.43;5.27;;;;;;;;;;5007478;28;20896;-60
2022/04/23 05:24:06;;;;;;;7.80;5.47;;;;;;;;;;5007548;28;20216;-59
2022/04/23 05:26:35;;;;;;;7.40;5.33;;;;;;;;;;5007271;28;20256;-59
2022/04/23 05:29:02;;;;;;;7.00;5.83;;;;;;;;;;5007239;28;20320;-59
2022/04/23 05:31:29;;;;;;;5.33;4.83;;;;;;;;;;5008524;28;20213;-59
2022/04/23 05:33:56;;;;;;;9.77;5.83;;;;;;;;;;5011077;28;20208;-60
2022/04/23 05:36:23;;;;;;;8.27;5.33;;;;;;;;;;5011133;28;20212;-59
2022/04/23 05:38:50;;;;;;;6.37;5.37;;;;;;;;;;5010567;28;20318;-60
2022/04/23 05:41:17;;;;;;;4.30;3.77;;;;;;;;;;5010453;28;20208;-60
2022/04/23 05:43:45;;;;;;;6.10;5.07;;;;;;;;;;5011166;28;20204;-60
2022/04/23 05:46:12;;;;;;;5.23;4.83;;;;;;;;;;5010620;28;20221;-61
2022/04/23 05:48:39;;;;;;;6.50;5.30;;;;;;;;;;5011259;28;20209;-59
2022/04/23 05:51:06;;;;;;;6.73;5.20;;;;;;;;;;5010776;28;20205;-59
2022/04/23 05:53:33;;;;;;;7.87;5.07;;;;;;;;;;5009899;28;20217;-60
2022/04/23 05:56:00;;;;;;;6.00;5.13;;;;;;;;;;5010697;28;20683;-60
2022/04/23 05:58:27;;;;;;;5.00;4.37;;;;;;;;;;5007444;28;20212;-59
2022/04/23 06:00:56;;;;;;;3.40;2.90;;;;;;;;;;5010963;28;20217;-60
2022/04/23 06:03:23;;;;;;;3.67;3.20;;;;;;;;;;5010634;28;20223;-61
2022/04/23 06:05:51;;;;;;;4.03;3.73;;;;;;;;;;5010804;28;20252;-60
2022/04/23 06:08:18;;;;;;;6.13;3.87;;;;;;;;;;5010354;28;20264;-60
2022/04/23 06:10:45;;;;;;;4.40;4.10;;;;;;;;;;5010755;28;20217;-58
2022/04/23 06:13:12;;;;;;;1.83;1.73;;;;;;;;;;5010969;28;20213;-58
2022/04/23 06:15:39;;;;;;;4.03;3.67;;;;;;;;;;5010810;28;20749;-59
2022/04/23 06:18:08;;;;;;;4.83;4.10;;;;;;;;;;5010632;28;20201;-58
2022/04/23 06:20:35;;;;;;;3.90;3.57;;;;;;;;;;5010479;28;20221;-58
2022/04/23 06:23:04;;;;;;;3.73;3.40;;;;;;;;;;5010722;28;20741;-59
2022/04/23 06:25:32;;;;;;;4.83;4.40;;;;;;;;;;5010616;28;20221;-59
2022/04/23 06:27:59;;;;;;;3.67;3.37;;;;;;;;;;5015409;28;20296;-59
2022/04/23 06:30:26;;;;;;;2.80;2.60;;;;;;;;;;5009738;28;20205;-59
2022/04/23 06:32:53;;;;;;;3.60;3.40;;;;;;;;;;5010414;28;21044;-59
2022/04/23 06:35:22;;;;;;;4.53;4.10;;;;;;;;;;5010385;28;20220;-60
2022/04/23 06:37:49;;;;;;;3.87;3.57;;;;;;;;;;5010272;28;20312;-59
2022/04/23 06:40:16;;;;;;;3.40;3.20;;;;;;;;;;5009968;28;20224;-60
2022/04/23 06:42:44;;;;;;;4.07;3.73;;;;;;;;;;5010579;28;20217;-59
2022/04/23 06:45:11;;;;;;;3.20;3.00;;;;;;;;;;5009830;28;20205;-59
2022/04/23 06:47:38;;;;;;;3.23;3.03;;;;;;;;;;5010211;28;20205;-59
2022/04/23 06:50:06;;;;;;;2.93;2.73;;;;;;;;;;5009668;28;20213;-59
2022/04/23 06:52:35;;;;;;;2.57;2.47;;;;;;;;;;5010429;28;20263;-59
2022/04/23 06:55:02;;;;;;;1.70;1.60;;;;;;;;;;5009420;28;20279;-59
2022/04/23 06:57:29;;;;;;;2.83;2.73;;;;;;;;;;5022954;28;20204;-60
2022/04/23 06:59:56;;;;;;;3.37;3.07;;;;;;;;;;5010044;28;20209;-59
2022/04/23 07:02:23;;;;;;;3.28;3.05;;;;;;;;;;5009717;28;20263;-59
2022/04/23 07:04:50;;;;;;;2.70;2.60;;;;;;;;;;5008947;28;20264;-61
2022/04/23 07:07:17;;;;;;;1.43;1.43;;;;;;;;;;5009231;28;20286;-60
2022/04/23 07:09:45;;;;;;;3.20;3.00;;;;;;;;;;5009204;28;20698;-60
2022/04/23 07:12:13;;;;;;;2.20;2.00;;;;;;;;;;5009448;28;20201;-60
2022/04/23 07:14:40;;;;;;;2.30;2.20;;;;;;;;;;5009438;28;20217;-60
2022/04/23 07:17:07;;;;;;;2.40;2.30;;;;;;;;;;5008990;28;20236;-61
2022/04/23 07:19:38;;;;;;;2.40;2.30;;;;;;;;;;5009310;28;20568;-60
2022/04/23 07:22:05;;;;;;;1.90;1.83;;;;;;;;;;5009200;28;20209;-62
2022/04/23 07:24:32;;;;;;;1.70;1.60;;;;;;;;;;5009439;28;20212;-60
2022/04/23 07:27:01;;;;;;;1.63;1.52;;;;;;;;;;5009175;28;20229;-61
2022/04/23 07:29:28;;;;;;;1.48;1.38;;;;;;;;;;5009252;28;20235;-60
2022/04/23 07:31:57;;;;;;;2.00;2.00;;;;;;;;;;5008837;28;20213;-60
2022/04/23 07:39:50;;;;;;;1.80;1.77;;;;;;;;;;5008256;28;20212;-60
2022/04/23 07:42:19;;;;;;;1.50;1.50;;;;;;;;;;5008204;28;20209;-60
2022/04/23 07:44:46;;;;;;;1.25;1.25;;;;;;;;;;5007937;28;20212;-60
2022/04/23 07:47:13;;;;;;;1.52;1.52;;;;;;;;;;5008267;28;20240;-61
2022/04/23 07:49:40;;;;;;;1.27;1.27;;;;;;;;;;5007810;28;20205;-60
2022/04/23 07:52:07;;;;;;;2.20;2.10;;;;;;;;;;5008242;28;20209;-63
2022/04/23 07:54:37;;;;;;;1.75;1.73;;;;;;;;;;5007887;28;20577;-59
2022/04/23 07:57:06;;;;;;;1.33;1.25;;;;;;;;;;5008818;28;20211;-61
2022/04/23 07:59:34;;;;;;;1.42;1.40;;;;;;;;;;5007726;28;20259;-60
2022/04/23 08:02:02;;;;;;;1.83;1.83;;;;;;;;;;5008100;28;20213;-60
2022/04/23 08:04:29;;;;;;;1.30;1.30;;;;;;;;;;5003578;28;20233;-60
2022/04/23 08:06:56;;;;;;;1.98;1.90;;;;;;;;;;5007460;28;20788;-60
2022/04/23 08:09:23;;;;;;;1.15;1.15;;;;;;;;;;5007928;28;20248;-60
2022/04/23 08:11:50;;;;;;;1.48;1.48;;;;;;;;;;5007789;28;20651;-59
2022/04/23 08:14:17;;;;;;;1.90;1.80;;;;;;;;;;5007454;28;20680;-66
2022/04/23 08:16:49;;;;;;;1.45;1.45;;;;;;;;;;5007786;28;20562;-60
2022/04/23 08:19:17;;;;;;;1.45;1.45;;;;;;;;;;5006286;28;20208;-60
2022/04/23 08:21:44;;;;;;;1.60;1.60;;;;;;;;;;4999472;28;20244;-61
2022/04/23 08:24:11;;;;;;;1.35;1.35;;;;;;;;;;5007742;28;20670;-60
2022/04/23 08:26:38;;;;;;;1.20;1.20;;;;;;;;;;5004531;28;20276;-59
2022/04/23 08:31:52;;;;;;;1.70;1.60;;;;;;;;;;5005646;28;20227;-59
2022/04/23 08:34:19;;;;;;;1.20;1.20;;;;;;;;;;5007933;28;20683;-59
2022/04/23 08:36:49;;;;;;;1.10;1.10;;;;;;;;;;5005735;28;20197;-59
2022/04/23 08:39:16;;;;;;;1.52;1.42;;;;;;;;;;5007214;28;20263;-60
2022/04/23 08:41:46;;;;;;;1.67;1.67;;;;;;;;;;5007076;28;20687;-59
2022/04/23 08:44:13;;;;;;;1.60;1.50;;;;;;;;;;5007712;28;20216;-59
2022/04/23 08:46:41;;;;;;;1.40;1.30;;;;;;;;;;5007068;28;20248;-59
2022/04/23 08:49:14;;;;;;;1.30;1.10;;;;;;;;;;5007228;28;20321;-60
2022/04/23 08:51:43;;;;;;;1.83;1.77;;;;;;;;;;5007108;28;20213;-61
2022/04/23 08:54:10;;;;;;;1.27;1.27;;;;;;;;;;5005050;28;20209;-61
2022/04/23 08:56:38;;;;;;;1.33;1.33;;;;;;;;;;5006422;28;20661;-61
2022/04/23 08:59:06;;;;;;;1.40;1.40;;;;;;;;;;5006559;28;20309;-59
2022/04/23 09:01:33;;;;;;;1.88;1.77;;;;;;;;;;4997625;28;20206;-59
2022/04/23 09:04:01;;;;;;;1.50;1.50;;;;;;;;;;5001635;28;20212;-60
2022/04/23 09:06:51;;;;;;;1.80;1.70;;;;;;;;;;5008367;28;20294;-60
2022/04/23 09:09:20;;;;;;;1.60;1.60;;;;;;;;;;4995742;28;20236;-59
2022/04/23 09:11:50;;;;;;;1.55;1.55;;;;;;;;;;4995991;28;20614;-59
2022/04/23 09:14:28;;;;;;;0.98;0.98;;;;;;;;;;5000550;28;20209;-59
2022/04/23 09:25:35;;;;;;;1.27;1.27;;;;;;;;;;4969165;28;20256;-63
2022/04/23 09:28:15;;;;;;;1.33;1.33;;;;;;;;;;4966386;28;20261;-60
2022/04/23 09:30:42;;;;;;;1.33;1.33;;;;;;;;;;4972561;28;20237;-61
2022/04/23 09:33:09;;;;;;;1.40;1.40;;;;;;;;;;5010010;28;20364;-61
2022/04/23 09:35:36;;;;;;;1.25;1.25;;;;;;;;;;5011079;28;20613;-60
2022/04/23 09:38:18;;;;;;;1.60;1.60;;;;;;;;;;5010930;28;20733;-60
2022/04/23 09:40:50;;;;;;;1.90;1.80;;;;;;;;;;5010882;28;20323;-62
2022/04/23 09:43:17;;;;;;;1.88;1.77;;;;;;;;;;5011056;28;20925;-61
2022/04/23 09:45:44;;;;;;;1.70;1.70;;;;;;;;;;5010928;28;20286;-60
2022/04/23 09:48:15;;;;;;;1.20;1.20;;;;;;;;;;5010469;28;20225;-61
2022/04/23 09:50:43;;;;;;;1.90;1.80;;;;;;;;;;5011444;28;20311;-61
2022/04/23 09:53:11;;;;;;;1.58;1.55;;;;;;;;;;5010457;28;20213;-61
2022/04/23 09:55:38;;;;;;;2.10;2.00;;;;;;;;;;5010620;28;20271;-61
2022/04/23 09:58:07;;;;;;;1.92;1.90;;;;;;;;;;5010429;28;20197;-61
2022/04/23 10:00:36;;;;;;;2.05;2.00;;;;;;;;;;5010867;28;20657;-59
2022/04/23 10:03:06;;;;;;;1.10;1.00;;;;;;;;;;5010236;28;20247;-59
2022/04/23 10:05:33;;;;;;;0.93;0.93;;;;;;;;;;5009781;28;20233;-59
2022/04/23 10:08:01;;;;;;;2.08;1.98;;;;;;;;;;5009493;28;20233;-60
2022/04/23 10:10:31;;;;;;;2.38;2.28;;;;;;;;;;5008436;28;20663;-61
2022/04/23 10:12:59;;;;;;;1.70;1.60;;;;;;;;;;5009819;28;20651;-60
2022/04/23 10:15:28;;;;;;;1.23;1.23;;;;;;;;;;5009523;28;20212;-60
2022/04/23 10:17:57;;;;;;;2.17;2.10;;;;;;;;;;5009248;28;20292;-60
2022/04/23 10:20:25;;;;;;;2.13;2.13;;;;;;;;;;5009770;28;20213;-60
2022/04/23 10:22:58;;;;;;;2.05;2.05;;;;;;;;;;5009948;28;20252;-60
2022/04/23 10:25:31;;;;;;;3.00;2.85;;;;;;;;;;5009812;28;20208;-60
2022/04/23 10:27:59;;;;;;;2.70;2.50;;;;;;;;;;5008334;28;20287;-62
2022/04/23 10:30:32;;;;;;;1.50;1.50;;;;;;;;;;5009493;28;20300;-60
2022/04/23 10:32:59;;;;;;;2.10;2.10;;;;;;;;;;5009391;28;20209;-61
2022/04/23 10:35:35;;;;;;;3.60;2.38;;;;;;;;;;5009775;28;20205;-60
2022/04/23 10:38:20;;;;;;;2.33;2.15;;;;;;;;;;5009308;28;20283;-61
2022/04/23 10:40:47;;;;;;;1.60;1.48;;;;;;;;;;5010107;28;20219;-61
2022/04/23 10:43:19;;;;;;;2.65;2.45;;;;;;;;;;5009199;28;20236;-61
2022/04/23 10:45:48;;;;;;;3.33;2.17;;;;;;;;;;5009163;28;20208;-60
2022/04/23 10:48:29;;;;;;;1.42;1.42;;;;;;;;;;5009862;28;20314;-61
2022/04/23 10:51:00;;;;;;;1.90;1.80;;;;;;;;;;5009535;28;20259;-60
2022/04/23 10:53:30;;;;;;;2.13;2.03;;;;;;;;;;5009471;28;20217;-60
2022/04/23 10:56:07;;;;;;;2.45;2.35;;;;;;;;;;5009404;28;20236;-60
2022/04/23 10:58:34;;;;;;;2.22;1.83;;;;;;;;;;5010017;28;20201;-61
2022/04/23 11:01:16;;;;;;;2.80;2.60;;;;;;;;;;5009841;28;20245;-60
2022/04/23 11:03:44;;;;;;;2.88;2.67;;;;;;;;;;5009176;28;20215;-61
2022/04/23 11:12:17;;;;;;;1.95;1.95;;;;;;;;;;5007460;28;20673;-61
2022/04/23 11:14:45;;;;;;;2.58;2.40;;;;;;;;;;5009372;28;20323;-61
2022/04/23 11:17:12;;;;;;;2.45;2.35;;;;;;;;;;5009241;28;20197;-61
2022/04/23 11:19:41;;;;;;;2.53;2.33;;;;;;;;;;5007293;28;20337;-60
2022/04/23 11:22:10;;;;;;;2.25;2.15;;;;;;;;;;5008447;28;20209;-59
2022/04/23 11:24:37;;;;;;;2.60;2.50;;;;;;;;;;5001988;28;20216;-60
2022/04/23 11:27:05;;;;;;;2.55;2.35;;;;;;;;;;5006417;28;20961;-60
2022/04/23 11:29:32;;;;;;;3.55;3.35;;;;;;;;;;5005647;28;20636;-60
2022/04/23 11:31:59;;;;;;;2.50;2.30;;;;;;;;;;5002877;28;20205;-60
2022/04/23 11:34:27;;;;;;;2.72;2.05;;;;;;;;;;5007045;28;20221;-60
2022/04/23 11:36:56;;;;;;;3.60;3.30;;;;;;;;;;5006248;28;20279;-59
2022/04/23 11:39:28;;;;;;;3.58;3.28;;;;;;;;;;5006524;28;20209;-59
2022/04/23 11:41:55;;;;;;;3.58;3.28;;;;;;;;;;5006089;28;20328;-60
2022/04/23 11:44:45;;;;;;;3.35;3.15;;;;;;;;;;5006040;28;20247;-60
2022/04/23 11:47:11;;;;;;;3.95;3.65;;;;;;;;;;5005753;28;20403;-60
2022/04/23 11:49:38;;;;;;;4.22;3.75;;;;;;;;;;5005428;28;20205;-60
2022/04/23 11:52:07;;;;;;;2.63;2.45;;;;;;;;;;5006337;28;20220;-60
2022/04/23 11:54:35;;;;;;;2.70;2.50;;;;;;;;;;5005406;28;20304;-62
2022/04/23 11:57:02;;;;;;;3.88;3.60;;;;;;;;;;5006328;28;20201;-65
2022/04/23 11:59:36;;;;;;;4.00;3.67;;;;;;;;;;5006183;28;20209;-62
2022/04/23 12:02:03;;;;;;;3.35;3.15;;;;;;;;;;5008266;28;20270;-62
2022/04/23 12:04:41;;;;;;;3.58;3.30;;;;;;;;;;5009771;28;20630;-59
2022/04/23 12:07:10;;;;;;;3.50;3.28;;;;;;;;;;5005537;28;20233;-60
2022/04/23 12:09:44;;;;;;;3.85;2.30;;;;;;;;;;5005523;28;20213;-59
2022/04/23 12:12:11;;;;;;;3.58;3.28;;;;;;;;;;5006638;28;20599;-59
2022/04/23 12:14:44;;;;;;;3.75;3.45;;;;;;;;;;5020384;28;20204;-59
2022/04/23 12:17:11;;;;;;;4.57;3.92;;;;;;;;;;5006818;28;20671;-60
2022/04/23 12:19:38;;;;;;;3.63;3.33;;;;;;;;;;5006374;28;20223;-61
2022/04/23 12:22:05;;;;;;;7.50;4.15;;;;;;;;;;5003998;28;20209;-61
2022/04/23 12:24:34;;;;;;;4.75;4.35;;;;;;;;;;5006289;28;20215;-61
2022/04/23 12:27:02;;;;;;;4.18;3.88;;;;;;;;;;5006581;28;20228;-59
2022/04/23 12:40:45;;;;;;;5.57;5.07;;;;;;;;;;5006051;28;20300;-59
2022/04/23 12:43:25;;;;;;;6.13;5.13;;;;;;;;;;5006161;28;20205;-61
2022/04/23 12:46:03;;;;;;;5.43;4.93;;;;;;;;;;5005536;28;20436;-59
2022/04/23 12:48:31;;;;;;;5.88;5.03;;;;;;;;;;4997140;28;20240;-60
2022/04/23 12:51:05;;;;;;;5.38;4.97;;;;;;;;;;5005940;28;20255;-59
2022/04/23 12:53:33;;;;;;;5.32;4.90;;;;;;;;;;5006228;28;20204;-59
2022/04/23 12:56:04;;;;;;;5.72;5.18;;;;;;;;;;5005743;28;20204;-59
2022/04/23 12:58:31;;;;;;;6.22;5.55;;;;;;;;;;5006214;28;20201;-59
2022/04/23 13:00:59;;;;;;;8.73;5.55;;;;;;;;;;5004953;28;20360;-61
2022/04/23 13:03:33;;;;;;;4.82;4.32;;;;;;;;;;5006264;28;20208;-61
2022/04/23 13:06:00;;;;;;;8.77;6.15;;;;;;;;;;5004280;28;20232;-60
2022/04/23 13:11:26;;;;;;;6.30;5.35;;;;;;;;;;5005252;28;20200;-59
2022/04/23 13:13:54;;;;;;;10.13;6.68;;;;;;;;;;5003424;28;20205;-59
2022/04/23 13:16:21;;;;;;;5.53;4.75;;;;;;;;;;5005326;28;20299;-59
2022/04/23 13:18:48;;;;;;;6.10;5.30;;;;;;;;;;5000639;28;20268;-60
2022/04/23 13:21:15;;;;;;;6.68;4.90;;;;;;;;;;4999000;28;20216;-59
2022/04/23 13:23:42;;;;;;;6.28;5.55;;;;;;;;;;5005486;28;20684;-59
2022/04/23 13:26:09;;;;;;;6.85;5.78;;;;;;;;;;5004430;28;20671;-59
2022/04/23 13:28:38;;;;;;;5.95;5.35;;;;;;;;;;5004091;28;20224;-60
2022/04/23 13:31:07;;;;;;;7.45;5.80;;;;;;;;;;5005926;28;20212;-58
2022/04/23 13:33:34;;;;;;;8.57;5.85;;;;;;;;;;5005885;28;20223;-59
2022/04/23 13:36:01;;;;;;;7.05;5.47;;;;;;;;;;5005595;28;20212;-59
2022/04/23 13:38:28;;;;;;;6.78;4.40;;;;;;;;;;5006555;28;20209;-58
2022/04/23 13:40:55;;;;;;;3.45;3.13;;;;;;;;;;5005008;28;20209;-59
2022/04/23 13:43:24;;;;;;;5.45;4.95;;;;;;;;;;5006224;28;20220;-59
2022/04/23 13:45:52;;;;;;;5.70;4.85;;;;;;;;;;5005729;28;20212;-59
2022/04/23 13:48:19;;;;;;;5.03;4.50;;;;;;;;;;5005716;28;20286;-59
2022/04/23 13:50:47;;;;;;;5.53;4.45;;;;;;;;;;5005650;28;21916;-59
2022/04/23 13:53:14;;;;;;;6.38;5.18;;;;;;;;;;5007522;28;20362;-59
2022/04/23 13:55:41;;;;;;;6.55;5.30;;;;;;;;;;5008700;28;20237;-59
2022/04/23 13:58:08;;;;;;;6.05;5.45;;;;;;;;;;4999223;28;20200;-59
2022/04/23 14:00:35;;;;;;;5.63;4.82;;;;;;;;;;5015861;28;20228;-59
2022/04/23 14:11:26;;;;;;;5.15;4.65;;;;;;;;;;4973211;28;20212;-59
2022/04/23 14:13:53;;;;;;;5.18;4.28;;;;;;;;;;5008042;28;20212;-60
2022/04/23 14:16:20;;;;;;;5.65;5.10;;;;;;;;;;5007376;28;20205;-59
2022/04/23 14:18:48;;;;;;;6.53;5.32;;;;;;;;;;5008050;28;20288;-59
2022/04/23 14:21:15;;;;;;;5.80;4.40;;;;;;;;;;5007100;28;20263;-60
2022/04/23 14:23:42;;;;;;;6.50;5.50;;;;;;;;;;5008739;28;20671;-60
2022/04/23 14:26:10;;;;;;;5.88;5.30;;;;;;;;;;5007727;28;20209;-60
2022/04/23 14:28:37;;;;;;;7.10;4.97;;;;;;;;;;5007885;28;20312;-59
2022/04/23 14:31:04;;;;;;;5.30;4.80;;;;;;;;;;5006966;28;20212;-60
2022/04/23 14:33:31;;;;;;;3.90;3.63;;;;;;;;;;5008192;28;20308;-60
2022/04/23 14:35:59;;;;;;;5.22;4.05;;;;;;;;;;5005068;28;20653;-60
2022/04/23 14:38:26;;;;;;;4.90;4.45;;;;;;;;;;5007935;28;20201;-59
2022/04/23 14:40:53;;;;;;;4.65;2.95;;;;;;;;;;5008120;28;20209;-59
2022/04/23 14:43:21;;;;;;;4.55;4.15;;;;;;;;;;5007918;28;20205;-60
2022/04/23 14:45:48;;;;;;;5.47;4.85;;;;;;;;;;5008292;28;20211;-60
2022/04/23 14:48:15;;;;;;;5.57;4.90;;;;;;;;;;5008398;28;20236;-60
2022/04/23 14:53:27;;;;;;;4.63;4.28;;;;;;;;;;5008242;28;20628;-60
2022/04/23 14:55:55;;;;;;;5.13;4.72;;;;;;;;;;5007627;28;20263;-60
2022/04/23 14:58:22;;;;;;;6.18;5.43;;;;;;;;;;5007479;28;20357;-60
2022/04/23 15:00:49;;;;;;;8.73;6.00;;;;;;;;;;4993255;28;20202;-61
2022/04/23 15:03:17;;;;;;;6.90;5.35;;;;;;;;;;5000071;28;20264;-61
2022/04/23 15:05:45;;;;;;;4.60;4.22;;;;;;;;;;5007483;28;20233;-60
2022/04/23 15:08:12;;;;;;;6.15;5.28;;;;;;;;;;5007548;28;20370;-60
2022/04/23 15:10:40;;;;;;;5.90;4.75;;;;;;;;;;5016073;28;20723;-60
2022/04/23 15:13:08;;;;;;;9.32;5.57;;;;;;;;;;5006406;28;20205;-59
2022/04/23 15:15:35;;;;;;;5.57;5.05;;;;;;;;;;5006547;28;20229;-63
2022/04/23 15:18:02;;;;;;;5.75;5.05;;;;;;;;;;5007167;28;20213;-60
2022/04/23 15:20:29;;;;;;;5.45;4.93;;;;;;;;;;5006141;28;20279;-60
2022/04/23 15:22:57;;;;;;;4.50;4.00;;;;;;;;;;5006830;28;20209;-61
2022/04/23 15:25:24;;;;;;;5.50;5.00;;;;;;;;;;5000758;28;20720;-60
2022/04/23 15:27:55;;;;;;;5.65;5.07;;;;;;;;;;5006672;28;20205;-60
2022/04/23 15:30:26;;;;;;;5.55;5.05;;;;;;;;;;5006299;28;20232;-60
2022/04/23 15:32:53;;;;;;;4.70;4.30;;;;;;;;;;5005431;28;20237;-61
2022/04/23 15:35:20;;;;;;;6.68;4.80;;;;;;;;;;5006258;28;20219;-60
2022/04/23 15:37:47;;;;;;;4.95;4.00;;;;;;;;;;5006253;28;20209;-60